Time;durP1;ratioP1;P1;durP2;ratioP2;P2;SDS_P1;SDS_P2;PMS_P1;PMS_P2;Temp;Humidity;BMP_temperature;BMP_pressure;BME280_temperature;BME280_humidity;BME280_pressure;Samples;Min_cycle;Max_cycle;Signal;HPM_P1;HPM_P2
2022/07/31 00:00:18;;;;;;;7.00;5.40;;;;;;;19.16;76.91;99561.25;4498197;31;34199;-74
2022/07/31 00:02:45;;;;;;;9.80;6.15;;;;;;;18.96;77.65;99559.37;4501659;31;34303;-74
2022/07/31 00:05:13;;;;;;;8.57;6.05;;;;;;;18.87;77.94;99554.06;4500413;31;33747;-75
2022/07/31 00:07:40;;;;;;;7.28;5.62;;;;;;;18.89;78.02;99557.59;4501676;31;34881;-74
2022/07/31 00:10:08;;;;;;;7.60;6.07;;;;;;;19.01;77.80;99552.44;4501095;31;33943;-75
2022/07/31 00:12:36;;;;;;;9.52;6.20;;;;;;;18.95;77.81;99552.37;4501111;31;33407;-75
2022/07/31 00:15:05;;;;;;;11.02;6.55;;;;;;;19.07;77.33;99551.59;4500893;31;33983;-74
2022/07/31 00:17:33;;;;;;;8.70;6.45;;;;;;;19.36;75.71;99548.25;4497682;31;34708;-75
2022/07/31 00:20:01;;;;;;;9.20;6.53;;;;;;;18.89;77.87;99541.84;4500787;31;34415;-74
2022/07/31 00:22:29;;;;;;;10.43;6.20;;;;;;;18.66;78.89;99539.91;4501698;31;33265;-74
2022/07/31 00:24:56;;;;;;;10.70;5.82;;;;;;;19.09;77.31;99534.09;4491479;31;33713;-74
2022/07/31 00:27:24;;;;;;;10.05;6.72;;;;;;;19.20;76.59;99535.03;4497589;31;34703;-75
2022/07/31 00:29:51;;;;;;;10.68;6.50;;;;;;;18.99;77.50;99540.16;4488926;31;33779;-74
2022/07/31 00:32:19;;;;;;;8.48;5.80;;;;;;;18.91;77.58;99544.47;4495619;31;33997;-74
2022/07/31 00:34:46;;;;;;;9.30;6.32;;;;;;;18.69;78.94;99527.66;4500160;31;33557;-74
2022/07/31 00:37:14;;;;;;;8.57;6.15;;;;;;;19.03;77.40;99537.56;4498800;31;33931;-74
2022/07/31 00:39:42;;;;;;;10.43;6.90;;;;;;;19.19;76.96;99537.66;4496564;31;33890;-75
2022/07/31 00:42:20;;;;;;;8.68;6.30;;;;;;;18.74;78.42;99537.34;4493829;31;32870;-74
2022/07/31 00:44:50;;;;;;;11.93;6.87;;;;;;;18.78;78.44;99538.25;4500389;31;33627;-74
2022/07/31 00:47:18;;;;;;;9.88;6.87;;;;;;;18.60;79.07;99539.84;4496496;31;34749;-75
2022/07/31 00:49:52;;;;;;;10.05;7.22;;;;;;;18.76;78.86;99545.22;4501979;31;33984;-74
2022/07/31 00:52:20;;;;;;;8.90;6.47;;;;;;;18.48;79.66;99544.97;4494587;31;33564;-74
2022/07/31 00:54:47;;;;;;;10.05;6.95;;;;;;;18.58;78.89;99540.69;4501305;31;33768;-74
2022/07/31 00:57:15;;;;;;;9.07;6.97;;;;;;;18.67;78.95;99535.53;4498873;31;33912;-75
2022/07/31 00:59:43;;;;;;;9.57;6.62;;;;;;;18.37;79.62;99541.38;4496938;31;33891;-74
2022/07/31 01:02:10;;;;;;;8.30;6.82;;;;;;;18.60;79.37;99545.09;4501209;31;33338;-75
2022/07/31 01:04:38;;;;;;;8.63;6.22;;;;;;;19.32;75.93;99551.75;4501302;31;34653;-74
2022/07/31 01:07:08;;;;;;;8.50;6.18;;;;;;;19.13;75.69;99543.75;4498802;31;33332;-74
2022/07/31 01:09:35;;;;;;;8.15;5.97;;;;;;;18.25;79.53;99552.63;4496376;31;33887;-76
2022/07/31 01:12:10;;;;;;;8.05;5.75;;;;;;;18.64;78.28;99553.88;4501070;31;33444;-75
2022/07/31 01:14:42;;;;;;;6.87;5.47;;;;;;;18.78;76.71;99553.97;4493864;31;34006;-75
2022/07/31 01:17:11;;;;;;;6.78;4.85;;;;;;;19.24;74.63;99549.06;4493974;31;34796;-74
2022/07/31 01:19:46;;;;;;;7.30;5.03;;;;;;;19.32;74.44;99555.25;4486148;31;34577;-74
2022/07/31 01:22:20;;;;;;;6.62;4.45;;;;;;;18.80;75.78;99552.28;4501405;31;34144;-74
2022/07/31 01:25:19;;;;;;;6.00;4.10;;;;;;;18.52;77.15;99551.13;4500028;31;33658;-75
2022/07/31 01:28:33;;;;;;;8.05;4.12;;;;;;;19.48;73.54;99555.31;4500385;31;34672;-75
2022/07/31 01:31:08;;;;;;;6.65;4.35;;;;;;;19.49;72.93;99551.81;4485415;31;34733;-74
2022/07/31 01:34:02;;;;;;;6.25;3.80;;;;;;;18.65;75.91;99553.88;4488538;31;33370;-75
2022/07/31 01:36:33;;;;;;;6.75;4.22;;;;;;;18.64;75.61;99549.50;4500282;31;32467;-75
2022/07/31 01:39:03;;;;;;;6.18;3.78;;;;;;;18.88;75.27;99561.06;4486324;31;34619;-74
2022/07/31 01:41:35;;;;;;;6.95;3.67;;;;;;;18.93;74.93;99559.37;4494328;31;34022;-75
2022/07/31 01:44:04;;;;;;;5.18;3.53;;;;;;;19.00;74.52;99561.16;4487494;31;33585;-75
2022/07/31 01:46:33;;;;;;;5.32;3.70;;;;;;;18.69;75.38;99561.78;4493931;31;33758;-75
2022/07/31 01:49:10;;;;;;;4.85;3.20;;;;;;;18.77;75.31;99566.19;4497825;31;34064;-75
2022/07/31 01:51:39;;;;;;;5.50;3.58;;;;;;;18.81;75.15;99569.75;4498198;31;33630;-75
2022/07/31 01:54:06;;;;;;;6.70;3.37;;;;;;;18.54;75.93;99567.75;4496657;31;33426;-75
2022/07/31 01:56:35;;;;;;;4.72;3.30;;;;;;;19.00;74.24;99571.66;4494389;31;33810;-74
2022/07/31 01:59:03;;;;;;;6.35;3.53;;;;;;;19.13;73.18;99566.50;4491937;31;33999;-75
2022/07/31 02:01:33;;;;;;;5.12;3.70;;;;;;;19.32;72.95;99567.50;4491373;31;34399;-75
2022/07/31 02:04:02;;;;;;;4.90;3.20;;;;;;;18.72;74.72;99564.44;4502726;31;33352;-74
2022/07/31 02:06:30;;;;;;;5.53;3.47;;;;;;;18.83;74.71;99563.69;4501108;31;34324;-75
2022/07/31 02:08:59;;;;;;;5.45;3.53;;;;;;;18.79;75.12;99571.47;4502279;31;33960;-75
2022/07/31 02:11:27;;;;;;;6.18;3.55;;;;;;;18.61;75.69;99561.72;4502751;31;33963;-75
2022/07/31 02:13:56;;;;;;;5.43;3.17;;;;;;;18.46;75.87;99567.69;4494700;31;33798;-76
2022/07/31 02:16:26;;;;;;;4.68;3.15;;;;;;;18.71;75.11;99565.28;4501649;31;34532;-75
2022/07/31 02:18:56;;;;;;;5.90;3.40;;;;;;;19.32;72.60;99552.59;4494929;31;34003;-74
2022/07/31 02:21:24;;;;;;;4.70;3.00;;;;;;;19.07;72.84;99555.97;4491162;31;34552;-74
2022/07/31 02:23:52;;;;;;;5.32;2.70;;;;;;;18.71;74.55;99557.41;4491117;31;34051;-75
2022/07/31 02:26:20;;;;;;;4.40;2.58;;;;;;;19.37;72.00;99545.66;4493635;31;33719;-74
2022/07/31 02:28:49;;;;;;;4.70;2.92;;;;;;;20.04;68.98;99538.88;4487381;31;33590;-75
2022/07/31 02:31:20;;;;;;;4.45;3.03;;;;;;;18.85;72.98;99533.09;4486095;32;34259;-75
2022/07/31 02:33:48;;;;;;;5.43;3.28;;;;;;;18.77;73.45;99531.22;4493618;31;33516;-74
2022/07/31 02:36:19;;;;;;;6.10;3.60;;;;;;;18.88;73.33;99532.22;4487011;31;33585;-74
2022/07/31 02:38:48;;;;;;;6.00;3.72;;;;;;;18.57;74.40;99518.84;4499064;31;33490;-75
2022/07/31 02:41:16;;;;;;;5.47;3.65;;;;;;;18.35;75.74;99524.75;4489292;31;33851;-74
2022/07/31 02:43:45;;;;;;;5.87;3.70;;;;;;;19.12;72.50;99522.72;4494242;31;33151;-73
2022/07/31 02:46:13;;;;;;;5.70;3.50;;;;;;;18.38;75.55;99522.19;4501305;31;34617;-76
2022/07/31 02:48:41;;;;;;;6.55;3.85;;;;;;;19.10;72.99;99529.72;4494543;31;34107;-75
2022/07/31 02:51:09;;;;;;;5.40;3.35;;;;;;;18.24;75.37;99525.53;4500576;31;34323;-75
2022/07/31 02:53:37;;;;;;;6.32;3.83;;;;;;;18.58;74.95;99525.84;4498675;31;33153;-74
2022/07/31 02:56:08;;;;;;;5.25;3.83;;;;;;;18.50;74.40;99522.25;4500126;31;33895;-74
2022/07/31 02:58:41;;;;;;;4.87;2.90;;;;;;;18.12;75.34;99525.44;4493373;31;33936;-74
2022/07/31 03:01:09;;;;;;;4.97;3.20;;;;;;;18.38;74.01;99537.91;4502024;31;34680;-76
2022/07/31 03:03:37;;;;;;;5.15;2.72;;;;;;;18.69;73.20;99527.66;4499822;31;33883;-75
2022/07/31 03:06:04;;;;;;;4.28;2.92;;;;;;;19.00;71.27;99534.91;4501451;31;33883;-77
2022/07/31 03:08:32;;;;;;;4.50;3.17;;;;;;;18.22;74.58;99540.38;4489954;31;33962;-75
2022/07/31 03:11:00;;;;;;;5.07;3.45;;;;;;;18.66;73.48;99529.41;4491828;31;33784;-75
2022/07/31 03:13:28;;;;;;;5.68;3.10;;;;;;;18.76;72.47;99538.22;4502533;31;33538;-76
2022/07/31 03:15:57;;;;;;;7.82;3.62;;;;;;;19.09;70.69;99528.84;4486928;31;32450;-75
2022/07/31 03:18:25;;;;;;;5.62;3.47;;;;;;;18.24;73.99;99530.78;4495628;31;34569;-77
2022/07/31 03:20:53;;;;;;;6.32;3.85;;;;;;;18.53;73.21;99524.94;4486654;31;34320;-76
2022/07/31 03:23:23;;;;;;;5.30;3.67;;;;;;;18.02;74.48;99534.94;4500894;31;33436;-75
2022/07/31 03:25:52;;;;;;;4.85;3.55;;;;;;;18.06;74.56;99528.00;4501102;31;34530;-75
2022/07/31 03:28:20;;;;;;;6.43;3.47;;;;;;;18.15;74.71;99529.81;4494692;31;34507;-76
2022/07/31 03:30:52;;;;;;;5.05;3.90;;;;;;;18.42;73.99;99521.31;4500894;31;34488;-74
2022/07/31 03:33:23;;;;;;;6.65;4.00;;;;;;;18.17;74.65;99526.34;4497390;31;31773;-76
2022/07/31 03:35:52;;;;;;;6.68;4.07;;;;;;;18.72;72.81;99532.94;4496824;31;34838;-75
2022/07/31 03:38:19;;;;;;;6.37;4.30;;;;;;;18.36;74.42;99518.66;4498434;31;34063;-76
2022/07/31 03:41:07;;;;;;;6.93;4.28;;;;;;;18.49;74.07;99515.28;4498269;31;33891;-75
2022/07/31 03:43:36;;;;;;;6.82;4.05;;;;;;;18.55;74.11;99520.56;4500878;31;33390;-75
2022/07/31 03:46:16;;;;;;;6.93;4.70;;;;;;;18.93;72.96;99527.87;4499128;31;33998;-74
2022/07/31 03:48:44;;;;;;;6.78;4.68;;;;;;;18.47;74.36;99511.78;4501660;31;33596;-77
2022/07/31 03:51:12;;;;;;;10.05;4.87;;;;;;;18.43;74.43;99510.84;4499392;31;34544;-74
2022/07/31 03:53:40;;;;;;;7.15;4.72;;;;;;;18.21;75.50;99517.62;4486059;31;33133;-77
2022/07/31 03:56:08;;;;;;;6.82;4.80;;;;;;;19.15;71.63;99521.00;4491843;31;33830;-75
2022/07/31 03:58:36;;;;;;;7.05;4.32;;;;;;;18.39;74.29;99522.19;4486495;31;34662;-75
2022/07/31 04:01:05;;;;;;;9.65;5.60;;;;;;;18.33;74.80;99523.88;4491648;31;34517;-76
2022/07/31 04:03:38;;;;;;;7.28;5.32;;;;;;;18.32;74.87;99522.13;4501688;31;34060;-74
2022/07/31 04:06:07;;;;;;;8.25;5.80;;;;;;;18.26;74.45;99523.81;4500965;31;33836;-75
2022/07/31 04:08:35;;;;;;;6.57;4.50;;;;;;;18.51;74.18;99518.78;4494517;31;33947;-77
2022/07/31 04:11:02;;;;;;;9.35;5.47;;;;;;;18.59;73.42;99522.34;4498865;31;34877;-76
2022/07/31 04:13:30;;;;;;;6.95;4.85;;;;;;;18.25;74.67;99522.06;4491823;31;33540;-75
2022/07/31 04:15:57;;;;;;;6.97;5.07;;;;;;;18.24;74.74;99528.16;4498327;31;33889;-76
2022/07/31 04:18:26;;;;;;;7.68;5.55;;;;;;;18.60;73.29;99529.37;4493893;31;34450;-74
2022/07/31 04:20:53;;;;;;;7.82;4.68;;;;;;;18.24;74.20;99536.03;4500906;31;33998;-75
2022/07/31 04:23:21;;;;;;;8.38;5.03;;;;;;;19.03;71.60;99531.44;4500481;31;33120;-74
2022/07/31 04:26:00;;;;;;;6.47;5.00;;;;;;;18.53;73.36;99535.41;4500559;31;32023;-76
2022/07/31 04:28:28;;;;;;;7.18;4.70;;;;;;;18.06;74.70;99551.59;4502084;31;33856;-76
2022/07/31 04:30:56;;;;;;;6.55;4.80;;;;;;;18.17;74.55;99543.81;4500889;31;34687;-74
2022/07/31 04:33:23;;;;;;;7.43;5.10;;;;;;;18.14;74.49;99533.28;4491803;31;34161;-77
2022/07/31 04:35:52;;;;;;;6.40;4.25;;;;;;;18.49;72.66;99531.00;4493724;31;32296;-76
2022/07/31 04:38:20;;;;;;;7.45;4.72;;;;;;;18.65;72.55;99530.25;4488668;31;34833;-76
2022/07/31 04:40:48;;;;;;;5.68;4.05;;;;;;;18.49;72.76;99523.16;4501608;31;34449;-77
2022/07/31 04:43:16;;;;;;;7.20;4.25;;;;;;;18.18;74.11;99533.34;4494718;31;34101;-75
2022/07/31 04:45:43;;;;;;;5.47;4.03;;;;;;;18.49;72.76;99535.37;4498809;31;34614;-75
2022/07/31 04:48:12;;;;;;;5.53;3.87;;;;;;;18.47;73.45;99525.75;4498710;31;33676;-75
2022/07/31 04:50:39;;;;;;;6.45;4.40;;;;;;;18.76;71.71;99511.13;4491696;31;34518;-77
2022/07/31 04:53:07;;;;;;;6.53;4.60;;;;;;;18.07;75.02;99541.09;4491653;31;33615;-78
2022/07/31 04:55:35;;;;;;;5.60;3.87;;;;;;;18.65;72.80;99527.63;4495689;31;33596;-76
2022/07/31 04:58:02;;;;;;;5.85;3.85;;;;;;;18.75;72.25;99527.72;4499302;31;34355;-75
2022/07/31 05:00:29;;;;;;;6.87;4.25;;;;;;;18.88;71.26;99515.59;4500608;31;34070;-74
2022/07/31 05:02:57;;;;;;;8.15;4.35;;;;;;;18.08;75.09;99521.03;4499088;31;34464;-75
2022/07/31 05:05:25;;;;;;;6.65;4.60;;;;;;;18.34;74.49;99520.41;4491838;31;34560;-74
2022/07/31 05:07:52;;;;;;;8.43;4.30;;;;;;;18.07;74.30;99522.75;4496384;31;34048;-75
2022/07/31 05:13:06;;;;;;;6.78;5.30;;;;;;;18.02;74.97;99523.56;4497235;31;33335;-75
2022/07/31 05:15:34;;;;;;;6.03;4.37;;;;;;;17.85;76.02;99521.66;4499636;31;33896;-76
2022/07/31 05:18:01;;;;;;;6.12;4.45;;;;;;;18.15;75.02;99521.97;4490603;31;34085;-78
2022/07/31 05:20:33;;;;;;;5.75;3.55;;;;;;;18.41;73.40;99527.47;4497400;31;33460;-79
2022/07/31 05:23:01;;;;;;;6.40;3.72;;;;;;;18.19;75.36;99529.84;4494619;31;33385;-76
2022/07/31 05:25:33;;;;;;;6.35;4.20;;;;;;;18.13;76.98;99526.31;4489290;31;32255;-75
2022/07/31 05:28:01;;;;;;;7.18;4.18;;;;;;;17.48;81.92;99542.16;4493682;31;33911;-73
2022/07/31 05:30:29;;;;;;;6.60;4.85;;;;;;;18.10;79.64;99547.25;4496281;31;33830;-75
2022/07/31 05:32:57;;;;;;;7.78;5.22;;;;;;;17.55;82.74;99548.34;4488593;31;33946;-74
2022/07/31 05:35:25;;;;;;;5.47;4.00;;;;;;;17.68;82.26;99544.16;4498378;31;33894;-76
2022/07/31 05:37:52;;;;;;;7.72;4.90;;;;;;;17.63;82.74;99551.06;4498474;31;33546;-75
2022/07/31 05:40:22;;;;;;;7.82;5.00;;;;;;;17.38;83.76;99544.63;4498776;31;33907;-74
2022/07/31 05:42:51;;;;;;;7.55;4.82;;;;;;;17.34;83.64;99543.69;4488675;31;33426;-76
2022/07/31 05:45:19;;;;;;;6.12;4.25;;;;;;;17.69;82.31;99559.87;4495833;31;34626;-76
2022/07/31 05:47:46;;;;;;;8.95;4.93;;;;;;;17.46;82.96;99549.13;4491785;31;34029;-76
2022/07/31 05:50:14;;;;;;;7.20;5.03;;;;;;;17.78;81.31;99551.25;4493472;31;34096;-77
2022/07/31 05:52:42;;;;;;;6.30;4.60;;;;;;;18.02;79.23;99550.69;4491326;31;33655;-76
2022/07/31 05:55:10;;;;;;;6.97;5.15;;;;;;;18.17;78.79;99546.44;4496321;31;33914;-74
2022/07/31 05:57:38;;;;;;;7.40;5.30;;;;;;;17.46;82.08;99554.34;4491743;31;34623;-75
2022/07/31 06:00:08;;;;;;;6.20;4.85;;;;;;;18.05;78.93;99553.31;4492060;31;33615;-77
2022/07/31 06:02:38;;;;;;;6.93;4.43;;;;;;;17.94;79.87;99557.56;4491933;31;33609;-75
2022/07/31 06:05:06;;;;;;;10.52;5.20;;;;;;;18.23;78.47;99552.66;4491863;31;34620;-76
2022/07/31 06:07:34;;;;;;;6.43;4.65;;;;;;;17.83;79.52;99570.53;4496382;31;34726;-77
2022/07/31 06:10:02;;;;;;;8.25;4.70;;;;;;;17.96;79.35;99565.44;4490333;31;33983;-75
2022/07/31 06:12:30;;;;;;;8.05;4.37;;;;;;;18.50;77.34;99564.22;4490400;31;33242;-77
2022/07/31 06:14:59;;;;;;;6.68;4.47;;;;;;;17.84;79.50;99566.19;4492966;31;33943;-76
2022/07/31 06:17:29;;;;;;;7.35;4.72;;;;;;;17.65;79.97;99565.03;4492031;31;33929;-76
2022/07/31 06:20:12;;;;;;;6.32;4.68;;;;;;;17.39;80.86;99568.22;4486973;31;32908;-76
2022/07/31 06:22:44;;;;;;;8.35;4.45;;;;;;;17.61;80.89;99573.72;4494354;31;33579;-76
2022/07/31 06:25:12;;;;;;;5.32;4.03;;;;;;;17.85;79.85;99573.19;4494893;31;33727;-77
2022/07/31 06:27:41;;;;;;;6.03;4.15;;;;;;;18.58;77.22;99573.06;4492408;31;33661;-76
2022/07/31 06:30:09;;;;;;;5.78;4.45;;;;;;;18.30;78.69;99576.28;4493250;31;33731;-77
2022/07/31 06:32:37;;;;;;;5.82;4.12;;;;;;;17.67;82.14;99579.03;4492362;31;31768;-75
2022/07/31 06:35:06;;;;;;;8.38;4.75;;;;;;;18.19;79.83;99577.03;4494029;31;33898;-76
2022/07/31 06:37:35;;;;;;;7.18;4.78;;;;;;;17.75;81.51;99576.50;4487816;31;35578;-75
2022/07/31 06:40:04;;;;;;;6.43;4.03;;;;;;;17.58;81.95;99578.94;4492719;31;34608;-78
2022/07/31 06:42:33;;;;;;;6.20;4.32;;;;;;;17.87;81.79;99582.81;4490510;31;33705;-77
2022/07/31 06:45:13;;;;;;;9.45;4.68;;;;;;;17.39;83.17;99586.53;4501280;31;33276;-76
2022/07/31 06:48:00;;;;;;;6.07;4.20;;;;;;;17.23;84.04;99584.56;4500200;31;33955;-78
2022/07/31 06:50:29;;;;;;;6.20;4.32;;;;;;;17.55;82.84;99594.59;4496903;31;34563;-74
2022/07/31 06:52:57;;;;;;;8.70;4.20;;;;;;;17.47;82.08;99591.88;4492789;31;34047;-76
2022/07/31 06:55:24;;;;;;;8.02;4.43;;;;;;;17.80;81.10;99591.44;4492964;31;33570;-76
2022/07/31 06:57:52;;;;;;;8.02;4.62;;;;;;;18.09;79.12;99590.94;4496596;31;34066;-77
2022/07/31 07:00:20;;;;;;;5.72;3.55;;;;;;;17.69;81.37;99582.56;4492053;31;32056;-75
2022/07/31 07:02:48;;;;;;;7.35;3.70;;;;;;;17.93;79.50;99581.16;4499212;31;33360;-75
2022/07/31 07:05:16;;;;;;;6.40;3.83;;;;;;;17.84;79.73;99587.16;4487181;31;34569;-77
2022/07/31 07:07:44;;;;;;;5.93;3.70;;;;;;;18.10;79.48;99590.06;4495869;31;33709;-76
2022/07/31 07:10:12;;;;;;;5.93;3.25;;;;;;;18.24;77.42;99583.22;4490999;31;32761;-79
2022/07/31 07:12:41;;;;;;;6.47;3.60;;;;;;;18.02;79.00;99581.22;4494246;31;33413;-77
2022/07/31 07:15:09;;;;;;;5.35;3.30;;;;;;;18.16;76.58;99574.41;4496777;31;34731;-79
2022/07/31 07:17:38;;;;;;;5.25;2.90;;;;;;;18.21;76.98;99591.03;4492074;31;33956;-81
2022/07/31 07:20:09;;;;;;;4.90;3.17;;;;;;;18.17;76.66;99577.91;4495548;31;33883;-78
2022/07/31 07:22:36;;;;;;;6.00;3.15;;;;;;;18.51;75.34;99575.63;4499857;31;34140;-78
2022/07/31 07:25:05;;;;;;;4.93;2.80;;;;;;;18.23;75.10;99555.25;4491221;31;33879;-78
2022/07/31 07:27:33;;;;;;;4.22;2.95;;;;;;;18.91;73.08;99561.13;4491701;31;34016;-78
2022/07/31 07:30:01;;;;;;;4.45;2.80;;;;;;;18.41;74.28;99558.94;4492888;31;34023;-78
2022/07/31 07:32:29;;;;;;;4.75;2.72;;;;;;;18.58;74.61;99569.53;4486508;31;33415;-76
2022/07/31 07:34:57;;;;;;;5.05;2.45;;;;;;;18.86;72.41;99558.44;4499883;31;34641;-78
2022/07/31 07:37:28;;;;;;;3.65;2.20;;;;;;;18.61;72.95;99556.47;4494602;31;32949;-78
2022/07/31 07:39:55;;;;;;;4.85;2.53;;;;;;;18.71;72.59;99574.03;4493184;31;32870;-78
2022/07/31 07:42:30;;;;;;;;;;;;;;;18.92;71.96;99568.09;4502312;31;33534;-78
2022/07/31 07:44:58;;;;;;;4.75;2.67;;;;;;;19.05;71.37;99563.81;4498564;31;34078;-78
2022/07/31 07:47:25;;;;;;;5.78;2.87;;;;;;;18.66;72.88;99576.63;4498042;31;34718;-77
2022/07/31 07:50:14;;;;;;;3.83;2.33;;;;;;;19.28;70.45;99556.09;4496081;31;34567;-77
2022/07/31 07:52:43;;;;;;;4.22;2.30;;;;;;;19.35;69.61;99573.63;4489233;31;33547;-78
2022/07/31 07:55:13;;;;;;;3.80;2.45;;;;;;;19.51;69.58;99558.84;4501020;31;33939;-77
2022/07/31 07:57:44;;;;;;;5.82;2.80;;;;;;;19.62;68.48;99557.16;4493915;31;33250;-80
2022/07/31 08:00:14;;;;;;;4.37;2.50;;;;;;;18.94;70.10;99549.75;4499844;31;32188;-80
2022/07/31 08:02:43;;;;;;;4.22;2.30;;;;;;;19.36;69.80;99554.38;4500749;31;32981;-77
2022/07/31 08:05:31;;;;;;;4.00;2.60;;;;;;;19.56;68.41;99551.84;4491657;31;34672;-77
2022/07/31 08:07:59;;;;;;;4.90;2.47;;;;;;;19.61;68.95;99558.00;4502260;31;34454;-77
2022/07/31 08:10:28;;;;;;;3.37;2.10;;;;;;;19.92;67.64;99570.41;4500210;31;34034;-77
2022/07/31 08:13:00;;;;;;;12.23;2.22;;;;;;;20.20;67.93;99567.00;4500646;31;34090;-76
2022/07/31 08:15:31;;;;;;;3.95;1.80;;;;;;;20.45;64.46;99572.25;4491165;31;32163;-78
2022/07/31 08:18:01;;;;;;;3.90;1.73;;;;;;;20.48;64.41;99582.81;4500092;31;33065;-78
2022/07/31 08:20:28;;;;;;;3.05;1.70;;;;;;;20.30;64.82;99567.88;4492595;31;33972;-76
2022/07/31 08:22:56;;;;;;;3.40;1.85;;;;;;;20.33;64.74;99577.53;4494424;31;33656;-79
2022/07/31 08:25:24;;;;;;;4.72;1.70;;;;;;;20.18;64.96;99589.75;4499467;31;33561;-80
2022/07/31 08:27:58;;;;;;;3.72;1.90;;;;;;;20.44;64.77;99596.84;4494666;31;34617;-79
2022/07/31 08:30:26;;;;;;;3.90;1.80;;;;;;;20.24;64.66;99581.00;4499976;31;34482;-79
2022/07/31 08:32:57;;;;;;;2.30;1.40;;;;;;;20.69;62.93;99581.09;4497046;31;33163;-78
2022/07/31 08:35:28;;;;;;;3.03;1.67;;;;;;;20.44;64.49;99581.03;4500391;31;32954;-77
2022/07/31 08:37:55;;;;;;;2.87;1.52;;;;;;;21.13;61.21;99575.81;4490391;31;32884;-76
2022/07/31 08:40:31;;;;;;;2.28;1.23;;;;;;;21.55;59.76;99576.56;4495786;31;33885;-78
2022/07/31 08:43:11;;;;;;;3.60;1.20;;;;;;;21.22;60.76;99566.97;4492300;31;33294;-77
2022/07/31 08:46:01;;;;;;;2.45;1.25;;;;;;;21.88;57.30;99576.44;4495615;31;34635;-77
2022/07/31 08:48:32;;;;;;;4.37;1.40;;;;;;;21.25;59.17;99574.91;4493349;31;33881;-78
2022/07/31 08:51:02;;;;;;;3.00;1.50;;;;;;;21.11;59.73;99589.81;4496039;31;35398;-78
2022/07/31 08:53:35;;;;;;;3.37;1.80;;;;;;;21.04;60.65;99598.63;4476947;31;33536;-78
2022/07/31 08:56:04;;;;;;;2.30;1.52;;;;;;;20.93;60.94;99591.59;4499536;31;33888;-77
2022/07/31 08:58:31;;;;;;;3.08;1.62;;;;;;;20.34;62.20;99595.03;4496405;31;33791;-77
2022/07/31 09:01:07;;;;;;;4.07;1.40;;;;;;;20.57;62.16;99602.97;4487054;31;33913;-78
2022/07/31 09:03:35;;;;;;;2.22;1.20;;;;;;;20.40;63.10;99592.44;4487459;31;31836;-77
2022/07/31 09:06:04;;;;;;;3.08;1.30;;;;;;;20.01;62.97;99605.50;4499527;31;33769;-77
2022/07/31 09:08:36;;;;;;;2.80;1.35;;;;;;;19.90;63.51;99603.72;4500818;31;33076;-77
2022/07/31 09:11:09;;;;;;;2.03;1.30;;;;;;;19.16;65.66;99600.62;4497839;31;34708;-76
2022/07/31 09:13:37;;;;;;;3.10;1.20;;;;;;;18.97;66.24;99602.28;4495463;31;33357;-78
2022/07/31 09:16:06;;;;;;;4.22;2.40;;;;;;;19.14;66.14;99595.41;4495813;31;33770;-79
2022/07/31 09:18:33;;;;;;;3.60;1.48;;;;;;;19.10;66.48;99608.47;4497689;31;34025;-77
2022/07/31 09:21:05;;;;;;;4.40;1.80;;;;;;;19.49;65.87;99622.72;4490827;31;34512;-80
2022/07/31 09:23:43;;;;;;;2.20;1.23;;;;;;;19.45;65.63;99630.59;4496077;31;33404;-79
2022/07/31 09:26:12;;;;;;;6.32;1.83;;;;;;;19.13;66.09;99613.75;4497929;31;33415;-80
2022/07/31 09:28:49;;;;;;;3.65;1.52;;;;;;;19.18;67.59;99627.78;4496227;31;32537;-78
2022/07/31 09:31:19;;;;;;;3.03;1.50;;;;;;;19.08;68.63;99620.72;4490374;31;34390;-77
2022/07/31 09:33:47;;;;;;;2.45;1.25;;;;;;;19.18;68.10;99620.81;4498571;31;34076;-79
2022/07/31 09:36:21;;;;;;;2.87;1.75;;;;;;;19.39;66.15;99621.78;4497061;31;34064;-78
2022/07/31 09:38:50;;;;;;;2.85;1.20;;;;;;;19.64;66.09;99617.56;4497409;31;34114;-80
2022/07/31 09:41:21;;;;;;;2.72;1.37;;;;;;;19.47;66.08;99619.22;4494009;31;32137;-80
2022/07/31 09:44:09;;;;;;;4.10;1.40;;;;;;;19.23;66.78;99610.31;4488387;31;33289;-83
2022/07/31 09:46:45;;;;;;;2.72;1.23;;;;;;;19.55;65.88;99607.03;4483730;31;33495;-85
2022/07/31 09:49:13;;;;;;;2.58;1.40;;;;;;;19.45;66.21;99596.47;4489262;31;33926;-78
2022/07/31 09:51:44;;;;;;;5.45;1.65;;;;;;;19.17;66.56;99602.41;4495779;31;33543;-80
2022/07/31 09:54:20;;;;;;;3.10;1.62;;;;;;;19.52;66.52;99593.84;4487520;31;34239;-81
2022/07/31 09:56:49;;;;;;;2.70;1.50;;;;;;;20.00;64.54;99600.22;4496866;31;32258;-77
2022/07/31 09:59:17;;;;;;;2.45;1.30;;;;;;;20.00;63.92;99600.22;4492862;31;34752;-78
2022/07/31 10:01:47;;;;;;;4.87;2.05;;;;;;;19.80;64.01;99582.63;4499242;31;34091;-79
2022/07/31 10:04:17;;;;;;;3.70;2.10;;;;;;;20.11;65.37;99595.88;4498195;31;32241;-79
2022/07/31 10:06:50;;;;;;;2.33;1.20;;;;;;;20.04;64.29;99594.97;4498271;31;34428;-80
2022/07/31 10:09:19;;;;;;;6.00;2.08;;;;;;;20.18;63.60;99610.78;4495982;31;33988;-79
2022/07/31 10:11:49;;;;;;;3.70;1.83;;;;;;;19.74;64.71;99598.38;4494025;31;31726;-79
2022/07/31 10:14:21;;;;;;;2.60;1.50;;;;;;;19.38;65.50;99589.41;4483704;31;32088;-78
2022/07/31 10:16:51;;;;;;;3.00;1.70;;;;;;;19.33;66.72;99599.00;4488190;31;33976;-79
2022/07/31 10:19:21;;;;;;;4.75;1.80;;;;;;;19.34;65.83;99597.28;4487225;31;33988;-77
2022/07/31 10:21:54;;;;;;;4.97;2.10;;;;;;;19.95;63.92;99601.97;4499193;31;34409;-80
2022/07/31 10:24:26;;;;;;;2.62;1.40;;;;;;;19.97;64.83;99597.56;4498265;31;33812;-79
2022/07/31 10:26:57;;;;;;;3.83;1.70;;;;;;;19.71;63.72;99594.84;4493533;31;34542;-77
2022/07/31 10:29:35;;;;;;;4.00;2.10;;;;;;;19.56;64.94;99600.88;4492425;31;34537;-79
2022/07/31 10:32:04;;;;;;;3.28;1.77;;;;;;;19.61;65.48;99607.06;4499226;31;33947;-81
2022/07/31 10:34:33;;;;;;;3.00;1.70;;;;;;;19.94;64.03;99608.09;4498659;31;32367;-79
2022/07/31 10:37:10;;;;;;;5.53;1.70;;;;;;;19.95;62.86;99575.66;4494547;31;33617;-79
2022/07/31 10:39:58;;;;;;;2.53;1.50;;;;;;;19.62;64.45;99593.03;4490092;31;33672;-79
2022/07/31 10:42:40;;;;;;;3.33;1.90;;;;;;;19.79;63.89;99601.91;4494380;31;33575;-78
2022/07/31 10:45:12;;;;;;;4.62;1.83;;;;;;;19.71;64.28;99593.06;4491687;31;33522;-79
2022/07/31 10:47:40;;;;;;;3.92;2.03;;;;;;;19.56;64.75;99603.50;4494745;31;33844;-78
2022/07/31 10:50:23;;;;;;;5.40;1.83;;;;;;;19.90;64.01;99609.84;4489419;31;34037;-77
2022/07/31 10:52:53;;;;;;;6.85;2.25;;;;;;;20.07;62.47;99607.28;4493674;31;34208;-77
2022/07/31 10:55:28;;;;;;;5.03;1.80;;;;;;;19.78;63.70;99589.66;4491917;31;34221;-76
2022/07/31 10:58:12;;;;;;;5.43;2.80;;;;;;;20.17;62.13;99602.91;4501469;31;34527;-75
2022/07/31 11:00:41;;;;;;;2.72;1.58;;;;;;;20.45;62.52;99630.13;4495453;31;34598;-76
2022/07/31 11:03:18;;;;;;;4.25;2.22;;;;;;;20.96;59.55;99627.59;4498701;31;33990;-76
2022/07/31 11:05:59;;;;;;;4.70;2.15;;;;;;;21.15;59.37;99618.81;4487265;31;34021;-77
2022/07/31 11:08:42;;;;;;;4.12;2.10;;;;;;;19.90;61.11;99630.00;4491724;31;33908;-77
2022/07/31 11:11:11;;;;;;;4.95;1.90;;;;;;;20.61;59.26;99631.09;4488659;31;34608;-78
2022/07/31 11:13:48;;;;;;;4.82;1.70;;;;;;;20.04;60.07;99639.66;4495730;31;34632;-76
2022/07/31 11:16:18;;;;;;;2.28;1.42;;;;;;;20.39;58.51;99645.91;4495933;31;33338;-76
2022/07/31 11:19:02;;;;;;;5.18;1.80;;;;;;;20.60;57.67;99650.37;4491852;31;33709;-77
2022/07/31 11:21:35;;;;;;;3.50;1.70;;;;;;;20.72;58.45;99660.91;4495703;31;34702;-77
2022/07/31 11:24:14;;;;;;;3.50;1.90;;;;;;;20.98;56.59;99644.28;4485340;32;34009;-75
2022/07/31 11:26:53;;;;;;;3.37;1.70;;;;;;;21.21;56.56;99662.72;4491677;31;34083;-77
2022/07/31 11:29:33;;;;;;;3.20;2.00;;;;;;;21.33;56.03;99644.25;4485430;32;33862;-78
2022/07/31 11:32:21;;;;;;;2.20;1.33;;;;;;;21.30;55.25;99657.41;4487682;31;33490;-77
2022/07/31 11:34:54;;;;;;;4.07;1.65;;;;;;;21.46;55.21;99644.25;4499282;31;34626;-77
2022/07/31 11:37:27;;;;;;;2.47;1.48;;;;;;;21.58;55.71;99649.50;4493763;31;34144;-77
2022/07/31 11:40:14;;;;;;;2.55;1.42;;;;;;;21.88;54.10;99672.25;4489914;31;34595;-77
2022/07/31 11:42:44;;;;;;;2.10;1.23;;;;;;;21.58;53.95;99660.06;4495733;31;33581;-76
2022/07/31 11:45:15;;;;;;;3.60;1.62;;;;;;;21.26;55.52;99663.56;4500003;31;33595;-78
2022/07/31 11:47:45;;;;;;;3.37;1.77;;;;;;;21.50;54.30;99664.44;4495744;31;33716;-77
2022/07/31 11:50:40;;;;;;;2.90;1.20;;;;;;;21.74;54.16;99682.84;4492753;31;33633;-77
2022/07/31 11:53:08;;;;;;;3.12;1.70;;;;;;;21.84;53.34;99677.56;4488846;31;33866;-76